sensor_id;sensor_type;location;lat;lon;timestamp;pressure;altitude;pressure_sealevel;temperature;humidity
13041;BME280;6587;42.728;23.288;2023-06-10T00:02:05;94745.84;;;18.79;100.00
13041;BME280;6587;42.728;23.288;2023-06-10T00:04:33;94751.28;;;18.68;100.00
13041;BME280;6587;42.728;23.288;2023-06-10T00:07:02;94738.13;;;18.80;100.00
13041;BME280;6587;42.728;23.288;2023-06-10T00:09:29;94747.09;;;18.67;100.00
13041;BME280;6587;42.728;23.288;2023-06-10T00:11:56;94740.94;;;18.50;100.00
13041;BME280;6587;42.728;23.288;2023-06-10T00:14:25;94734.91;;;18.29;100.00
13041;BME280;6587;42.728;23.288;2023-06-10T00:16:52;94733.00;;;18.13;100.00
13041;BME280;6587;42.728;23.288;2023-06-10T00:19:19;94731.28;;;17.90;100.00
13041;BME280;6587;42.728;23.288;2023-06-10T00:21:51;94732.03;;;17.67;100.00
13041;BME280;6587;42.728;23.288;2023-06-10T00:24:20;94733.50;;;17.74;100.00
13041;BME280;6587;42.728;23.288;2023-06-10T00:26:47;94725.84;;;17.75;100.00
13041;BME280;6587;42.728;23.288;2023-06-10T00:29:14;94733.97;;;17.60;100.00
13041;BME280;6587;42.728;23.288;2023-06-10T00:31:41;94735.03;;;17.79;100.00
13041;BME280;6587;42.728;23.288;2023-06-10T00:34:08;94731.94;;;17.70;100.00
13041;BME280;6587;42.728;23.288;2023-06-10T00:36:35;94732.88;;;17.67;100.00
13041;BME280;6587;42.728;23.288;2023-06-10T00:39:03;94733.97;;;17.85;100.00
13041;BME280;6587;42.728;23.288;2023-06-10T00:41:31;94740.47;;;17.94;100.00
13041;BME280;6587;42.728;23.288;2023-06-10T00:43:59;94736.47;;;18.10;100.00
13041;BME280;6587;42.728;23.288;2023-06-10T00:46:26;94734.00;;;18.32;100.00
13041;BME280;6587;42.728;23.288;2023-06-10T00:48:55;94738.59;;;18.44;100.00
13041;BME280;6587;42.728;23.288;2023-06-10T00:51:22;94747.28;;;18.39;100.00
13041;BME280;6587;42.728;23.288;2023-06-10T00:53:49;94743.78;;;18.65;100.00
13041;BME280;6587;42.728;23.288;2023-06-10T00:56:16;94745.97;;;18.52;100.00
13041;BME280;6587;42.728;23.288;2023-06-10T00:58:45;94754.63;;;18.46;100.00
13041;BME280;6587;42.728;23.288;2023-06-10T01:01:11;94752.34;;;18.62;100.00
13041;BME280;6587;42.728;23.288;2023-06-10T01:03:39;94758.66;;;18.52;100.00
13041;BME280;6587;42.728;23.288;2023-06-10T01:06:11;94749.25;;;18.78;100.00
13041;BME280;6587;42.728;23.288;2023-06-10T01:08:47;94755.69;;;18.86;100.00
13041;BME280;6587;42.728;23.288;2023-06-10T01:11:20;94742.50;;;18.76;100.00
13041;BME280;6587;42.728;23.288;2023-06-10T01:13:50;94751.72;;;19.01;100.00
13041;BME280;6587;42.728;23.288;2023-06-10T01:16:18;94752.63;;;19.00;100.00
13041;BME280;6587;42.728;23.288;2023-06-10T01:18:46;94752.44;;;18.83;100.00
13041;BME280;6587;42.728;23.288;2023-06-10T01:21:19;94748.38;;;19.00;100.00
13041;BME280;6587;42.728;23.288;2023-06-10T01:23:46;94750.50;;;18.66;100.00
13041;BME280;6587;42.728;23.288;2023-06-10T01:26:13;94750.09;;;18.55;100.00
13041;BME280;6587;42.728;23.288;2023-06-10T01:28:44;94742.13;;;18.64;100.00
13041;BME280;6587;42.728;23.288;2023-06-10T01:31:18;94743.34;;;18.53;100.00
13041;BME280;6587;42.728;23.288;2023-06-10T01:33:52;94745.84;;;18.79;100.00
13041;BME280;6587;42.728;23.288;2023-06-10T01:36:22;94743.47;;;18.74;100.00
13041;BME280;6587;42.728;23.288;2023-06-10T01:38:50;94725.25;;;18.39;100.00
13041;BME280;6587;42.728;23.288;2023-06-10T01:41:20;94729.25;;;18.23;100.00
13041;BME280;6587;42.728;23.288;2023-06-10T01:43:48;94734.16;;;18.27;100.00
13041;BME280;6587;42.728;23.288;2023-06-10T01:46:15;94725.94;;;18.21;100.00
13041;BME280;6587;42.728;23.288;2023-06-10T01:48:45;94730.94;;;18.22;100.00
13041;BME280;6587;42.728;23.288;2023-06-10T01:51:12;94730.13;;;18.22;100.00
13041;BME280;6587;42.728;23.288;2023-06-10T01:53:40;94733.34;;;18.27;100.00
13041;BME280;6587;42.728;23.288;2023-06-10T01:56:07;94725.47;;;18.33;100.00
13041;BME280;6587;42.728;23.288;2023-06-10T01:58:35;94730.28;;;18.41;100.00
13041;BME280;6587;42.728;23.288;2023-06-10T02:01:02;94729.16;;;18.48;100.00
13041;BME280;6587;42.728;23.288;2023-06-10T02:03:29;94722.31;;;18.50;100.00
13041;BME280;6587;42.728;23.288;2023-06-10T02:05:55;94722.81;;;18.60;100.00
13041;BME280;6587;42.728;23.288;2023-06-10T02:08:22;94707.28;;;18.22;100.00
13041;BME280;6587;42.728;23.288;2023-06-10T02:10:51;94725.06;;;18.67;100.00
13041;BME280;6587;42.728;23.288;2023-06-10T02:13:18;94719.34;;;18.84;100.00
13041;BME280;6587;42.728;23.288;2023-06-10T02:15:45;94718.78;;;18.78;100.00
13041;BME280;6587;42.728;23.288;2023-06-10T02:18:12;94708.22;;;18.65;100.00
13041;BME280;6587;42.728;23.288;2023-06-10T02:20:39;94717.22;;;18.73;100.00
13041;BME280;6587;42.728;23.288;2023-06-10T02:23:05;94697.63;;;18.53;100.00
13041;BME280;6587;42.728;23.288;2023-06-10T02:25:32;94714.75;;;18.72;100.00
13041;BME280;6587;42.728;23.288;2023-06-10T02:28:01;94714.03;;;18.90;100.00
13041;BME280;6587;42.728;23.288;2023-06-10T02:30:29;94706.19;;;18.74;100.00
13041;BME280;6587;42.728;23.288;2023-06-10T02:32:55;94705.47;;;18.71;100.00
13041;BME280;6587;42.728;23.288;2023-06-10T02:35:24;94711.00;;;18.81;100.00
13041;BME280;6587;42.728;23.288;2023-06-10T02:37:52;94706.47;;;18.89;100.00
13041;BME280;6587;42.728;23.288;2023-06-10T02:40:20;94706.78;;;19.02;100.00
13041;BME280;6587;42.728;23.288;2023-06-10T02:42:46;94688.28;;;18.98;100.00
13041;BME280;6587;42.728;23.288;2023-06-10T02:45:15;94700.53;;;19.10;100.00
13041;BME280;6587;42.728;23.288;2023-06-10T02:47:43;94689.59;;;19.08;100.00
13041;BME280;6587;42.728;23.288;2023-06-10T02:50:11;94698.94;;;19.08;100.00
13041;BME280;6587;42.728;23.288;2023-06-10T02:52:49;94689.22;;;19.17;100.00
13041;BME280;6587;42.728;23.288;2023-06-10T02:55:16;94687.38;;;19.21;100.00
13041;BME280;6587;42.728;23.288;2023-06-10T02:57:49;94698.63;;;19.15;100.00
13041;BME280;6587;42.728;23.288;2023-06-10T03:00:20;94702.72;;;18.97;100.00
13041;BME280;6587;42.728;23.288;2023-06-10T03:02:48;94703.03;;;18.90;100.00
13041;BME280;6587;42.728;23.288;2023-06-10T03:05:19;94709.88;;;18.88;100.00
13041;BME280;6587;42.728;23.288;2023-06-10T03:07:50;94711.75;;;18.61;100.00
13041;BME280;6587;42.728;23.288;2023-06-10T03:10:17;94706.69;;;18.61;100.00
13041;BME280;6587;42.728;23.288;2023-06-10T03:12:44;94713.09;;;18.69;100.00
13041;BME280;6587;42.728;23.288;2023-06-10T03:15:12;94716.78;;;18.84;100.00
13041;BME280;6587;42.728;23.288;2023-06-10T03:17:41;94712.81;;;18.99;100.00
13041;BME280;6587;42.728;23.288;2023-06-10T03:20:10;94724.19;;;18.90;100.00
13041;BME280;6587;42.728;23.288;2023-06-10T03:22:39;94705.59;;;18.66;100.00
13041;BME280;6587;42.728;23.288;2023-06-10T03:25:08;94720.38;;;18.57;100.00
13041;BME280;6587;42.728;23.288;2023-06-10T03:27:42;94727.22;;;18.55;100.00
13041;BME280;6587;42.728;23.288;2023-06-10T03:30:12;94734.03;;;18.54;100.00
13041;BME280;6587;42.728;23.288;2023-06-10T03:32:41;94730.53;;;18.35;100.00
13041;BME280;6587;42.728;23.288;2023-06-10T03:35:11;94709.34;;;18.12;100.00
13041;BME280;6587;42.728;23.288;2023-06-10T03:37:38;94726.84;;;18.20;100.00
13041;BME280;6587;42.728;23.288;2023-06-10T03:40:06;94717.16;;;18.06;100.00
13041;BME280;6587;42.728;23.288;2023-06-10T03:42:35;94707.19;;;18.01;100.00
13041;BME280;6587;42.728;23.288;2023-06-10T03:45:02;94731.56;;;18.29;100.00
13041;BME280;6587;42.728;23.288;2023-06-10T03:47:33;94717.50;;;18.20;100.00
13041;BME280;6587;42.728;23.288;2023-06-10T03:50:04;94712.97;;;18.28;100.00
13041;BME280;6587;42.728;23.288;2023-06-10T03:52:32;94720.69;;;18.49;100.00
13041;BME280;6587;42.728;23.288;2023-06-10T03:54:59;94717.16;;;18.51;100.00
13041;BME280;6587;42.728;23.288;2023-06-10T03:57:27;94716.91;;;18.59;100.00
13041;BME280;6587;42.728;23.288;2023-06-10T03:59:54;94720.84;;;18.66;100.00
13041;BME280;6587;42.728;23.288;2023-06-10T04:02:22;94712.00;;;18.76;100.00
13041;BME280;6587;42.728;23.288;2023-06-10T04:04:49;94718.69;;;18.79;100.00
13041;BME280;6587;42.728;23.288;2023-06-10T04:07:18;94723.66;;;18.82;100.00
13041;BME280;6587;42.728;23.288;2023-06-10T04:09:46;94727.34;;;18.75;100.00
13041;BME280;6587;42.728;23.288;2023-06-10T04:12:13;94729.16;;;18.70;100.00
13041;BME280;6587;42.728;23.288;2023-06-10T04:14:40;94732.19;;;18.58;100.00
13041;BME280;6587;42.728;23.288;2023-06-10T04:17:10;94728.47;;;18.66;100.00
13041;BME280;6587;42.728;23.288;2023-06-10T04:19:37;94735.88;;;18.72;100.00
13041;BME280;6587;42.728;23.288;2023-06-10T04:22:05;94739.56;;;18.87;100.00
13041;BME280;6587;42.728;23.288;2023-06-10T04:24:34;94738.09;;;18.82;100.00
13041;BME280;6587;42.728;23.288;2023-06-10T04:27:01;94734.06;;;18.76;100.00
13041;BME280;6587;42.728;23.288;2023-06-10T04:29:29;94713.19;;;18.68;100.00
13041;BME280;6587;42.728;23.288;2023-06-10T04:31:56;94719.50;;;18.58;100.00
13041;BME280;6587;42.728;23.288;2023-06-10T04:34:23;94719.84;;;18.48;100.00
13041;BME280;6587;42.728;23.288;2023-06-10T04:36:52;94726.06;;;18.63;100.00
13041;BME280;6587;42.728;23.288;2023-06-10T04:39:19;94732.63;;;18.91;100.00
13041;BME280;6587;42.728;23.288;2023-06-10T04:41:48;94734.41;;;19.11;100.00
13041;BME280;6587;42.728;23.288;2023-06-10T04:44:15;94736.59;;;18.98;100.00
13041;BME280;6587;42.728;23.288;2023-06-10T04:46:42;94735.75;;;19.19;100.00
13041;BME280;6587;42.728;23.288;2023-06-10T04:49:09;94738.25;;;19.41;100.00
13041;BME280;6587;42.728;23.288;2023-06-10T04:51:36;94736.75;;;19.58;100.00
13041;BME280;6587;42.728;23.288;2023-06-10T04:54:04;94734.56;;;19.48;100.00
13041;BME280;6587;42.728;23.288;2023-06-10T04:56:31;94730.47;;;19.24;100.00
13041;BME280;6587;42.728;23.288;2023-06-10T04:58:59;94706.72;;;19.25;100.00
13041;BME280;6587;42.728;23.288;2023-06-10T05:01:26;94724.59;;;19.44;100.00
13041;BME280;6587;42.728;23.288;2023-06-10T05:03:53;94724.25;;;19.52;100.00
13041;BME280;6587;42.728;23.288;2023-06-10T05:06:20;94729.34;;;19.52;100.00
13041;BME280;6587;42.728;23.288;2023-06-10T05:08:47;94718.56;;;19.46;100.00
13041;BME280;6587;42.728;23.288;2023-06-10T05:11:14;94729.22;;;19.55;100.00
13041;BME280;6587;42.728;23.288;2023-06-10T05:13:41;94733.91;;;19.23;100.00
13041;BME280;6587;42.728;23.288;2023-06-10T05:16:09;94728.16;;;18.97;100.00
13041;BME280;6587;42.728;23.288;2023-06-10T05:18:36;94731.63;;;19.37;100.00
13041;BME280;6587;42.728;23.288;2023-06-10T05:21:03;94724.81;;;19.17;100.00
13041;BME280;6587;42.728;23.288;2023-06-10T05:23:30;94725.13;;;19.30;100.00
13041;BME280;6587;42.728;23.288;2023-06-10T05:25:57;94732.66;;;19.54;100.00
13041;BME280;6587;42.728;23.288;2023-06-10T05:28:25;94740.34;;;19.52;100.00
13041;BME280;6587;42.728;23.288;2023-06-10T05:30:52;94741.13;;;19.75;100.00
13041;BME280;6587;42.728;23.288;2023-06-10T05:33:20;94746.72;;;20.22;100.00
13041;BME280;6587;42.728;23.288;2023-06-10T05:35:47;94744.63;;;19.92;100.00
13041;BME280;6587;42.728;23.288;2023-06-10T05:38:14;94742.03;;;19.94;100.00
13041;BME280;6587;42.728;23.288;2023-06-10T05:40:41;94750.41;;;19.96;100.00
13041;BME280;6587;42.728;23.288;2023-06-10T05:43:08;94750.53;;;20.32;100.00
13041;BME280;6587;42.728;23.288;2023-06-10T05:45:35;94750.53;;;20.32;100.00
13041;BME280;6587;42.728;23.288;2023-06-10T05:48:02;94750.25;;;20.19;100.00
13041;BME280;6587;42.728;23.288;2023-06-10T05:50:30;94760.16;;;19.86;100.00
13041;BME280;6587;42.728;23.288;2023-06-10T05:53:03;94748.03;;;20.12;100.00
13041;BME280;6587;42.728;23.288;2023-06-10T05:55:32;94751.41;;;20.12;100.00
13041;BME280;6587;42.728;23.288;2023-06-10T05:57:59;94746.59;;;19.86;100.00
13041;BME280;6587;42.728;23.288;2023-06-10T06:00:26;94750.63;;;20.10;100.00
13041;BME280;6587;42.728;23.288;2023-06-10T06:02:53;94746.75;;;20.41;100.00
13041;BME280;6587;42.728;23.288;2023-06-10T06:05:22;94752.03;;;20.36;100.00
13041;BME280;6587;42.728;23.288;2023-06-10T06:07:51;94739.78;;;20.26;100.00
13041;BME280;6587;42.728;23.288;2023-06-10T06:10:18;94747.34;;;20.46;100.00
13041;BME280;6587;42.728;23.288;2023-06-10T06:12:45;94754.34;;;20.22;100.00
13041;BME280;6587;42.728;23.288;2023-06-10T06:15:11;94755.00;;;20.27;100.00
13041;BME280;6587;42.728;23.288;2023-06-10T06:17:38;94755.34;;;20.38;100.00
13041;BME280;6587;42.728;23.288;2023-06-10T06:20:06;94757.63;;;20.44;100.00
13041;BME280;6587;42.728;23.288;2023-06-10T06:22:33;94756.19;;;20.58;100.00
13041;BME280;6587;42.728;23.288;2023-06-10T06:25:02;94762.81;;;20.62;100.00
13041;BME280;6587;42.728;23.288;2023-06-10T06:27:29;94765.22;;;20.65;100.00
13041;BME280;6587;42.728;23.288;2023-06-10T06:29:56;94763.41;;;20.48;100.00
13041;BME280;6587;42.728;23.288;2023-06-10T06:32:24;94761.13;;;20.23;100.00
13041;BME280;6587;42.728;23.288;2023-06-10T06:34:53;94751.47;;;20.30;100.00
13041;BME280;6587;42.728;23.288;2023-06-10T06:37:21;94765.06;;;20.49;100.00
13041;BME280;6587;42.728;23.288;2023-06-10T06:39:53;94758.50;;;20.43;100.00
13041;BME280;6587;42.728;23.288;2023-06-10T06:42:21;94754.00;;;20.50;100.00
13041;BME280;6587;42.728;23.288;2023-06-10T06:45:03;94749.09;;;20.83;100.00
13041;BME280;6587;42.728;23.288;2023-06-10T06:47:30;94742.56;;;20.95;100.00
13041;BME280;6587;42.728;23.288;2023-06-10T06:49:57;94746.06;;;21.11;100.00
13041;BME280;6587;42.728;23.288;2023-06-10T06:52:24;94745.56;;;20.86;100.00
13041;BME280;6587;42.728;23.288;2023-06-10T06:54:50;94740.72;;;20.99;100.00
13041;BME280;6587;42.728;23.288;2023-06-10T06:57:17;94749.03;;;21.02;100.00
13041;BME280;6587;42.728;23.288;2023-06-10T06:59:45;94739.84;;;21.53;100.00
13041;BME280;6587;42.728;23.288;2023-06-10T07:02:12;94741.06;;;21.10;100.00
13041;BME280;6587;42.728;23.288;2023-06-10T07:04:39;94741.19;;;21.07;100.00
13041;BME280;6587;42.728;23.288;2023-06-10T07:07:07;94737.19;;;21.72;100.00
13041;BME280;6587;42.728;23.288;2023-06-10T07:09:34;94744.94;;;21.53;100.00
13041;BME280;6587;42.728;23.288;2023-06-10T07:12:01;94735.59;;;21.87;100.00
13041;BME280;6587;42.728;23.288;2023-06-10T07:14:28;94729.44;;;22.24;100.00
13041;BME280;6587;42.728;23.288;2023-06-10T07:16:56;94731.06;;;21.23;100.00
13041;BME280;6587;42.728;23.288;2023-06-10T07:19:23;94733.28;;;21.82;100.00
13041;BME280;6587;42.728;23.288;2023-06-10T07:21:50;94729.09;;;21.97;100.00
13041;BME280;6587;42.728;23.288;2023-06-10T07:24:17;94725.56;;;22.65;100.00
13041;BME280;6587;42.728;23.288;2023-06-10T07:26:45;94725.34;;;22.38;100.00
13041;BME280;6587;42.728;23.288;2023-06-10T07:29:12;94726.03;;;23.19;100.00
13041;BME280;6587;42.728;23.288;2023-06-10T07:31:40;94721.81;;;23.48;100.00
13041;BME280;6587;42.728;23.288;2023-06-10T07:34:09;94731.34;;;23.90;100.00
13041;BME280;6587;42.728;23.288;2023-06-10T07:36:35;94726.91;;;23.03;100.00
13041;BME280;6587;42.728;23.288;2023-06-10T07:39:03;94725.69;;;23.25;100.00
13041;BME280;6587;42.728;23.288;2023-06-10T07:41:30;94722.13;;;23.58;100.00
13041;BME280;6587;42.728;23.288;2023-06-10T07:43:56;94718.03;;;23.09;100.00
13041;BME280;6587;42.728;23.288;2023-06-10T07:46:24;94718.03;;;23.25;100.00
13041;BME280;6587;42.728;23.288;2023-06-10T07:48:53;94726.75;;;23.81;100.00
13041;BME280;6587;42.728;23.288;2023-06-10T07:51:22;94728.88;;;24.03;97.80
13041;BME280;6587;42.728;23.288;2023-06-10T07:53:49;94726.50;;;23.71;95.20
13041;BME280;6587;42.728;23.288;2023-06-10T07:56:16;94722.91;;;23.74;93.75
13041;BME280;6587;42.728;23.288;2023-06-10T07:58:42;94722.09;;;24.02;92.76
13041;BME280;6587;42.728;23.288;2023-06-10T08:01:09;94719.53;;;23.88;94.76
13041;BME280;6587;42.728;23.288;2023-06-10T08:03:36;94715.34;;;24.44;92.18
13041;BME280;6587;42.728;23.288;2023-06-10T08:06:03;94714.94;;;24.64;88.79
13041;BME280;6587;42.728;23.288;2023-06-10T08:08:32;94710.31;;;24.42;88.47
13041;BME280;6587;42.728;23.288;2023-06-10T08:11:00;94712.22;;;24.10;93.70
13041;BME280;6587;42.728;23.288;2023-06-10T08:13:27;94713.59;;;24.01;94.89
13041;BME280;6587;42.728;23.288;2023-06-10T08:15:53;94705.16;;;24.28;97.27
13041;BME280;6587;42.728;23.288;2023-06-10T08:18:21;94707.66;;;24.30;94.76
13041;BME280;6587;42.728;23.288;2023-06-10T08:20:47;94706.44;;;22.88;95.05
13041;BME280;6587;42.728;23.288;2023-06-10T08:23:14;94704.38;;;22.94;98.44
13041;BME280;6587;42.728;23.288;2023-06-10T08:25:43;94702.34;;;23.45;94.90
13041;BME280;6587;42.728;23.288;2023-06-10T08:28:09;94698.22;;;23.87;95.68
13041;BME280;6587;42.728;23.288;2023-06-10T08:30:36;94700.16;;;23.98;97.84
13041;BME280;6587;42.728;23.288;2023-06-10T08:33:03;94693.53;;;24.37;92.54
13041;BME280;6587;42.728;23.288;2023-06-10T08:35:30;94698.66;;;24.37;91.96
13041;BME280;6587;42.728;23.288;2023-06-10T08:37:57;94695.19;;;24.79;91.47
13041;BME280;6587;42.728;23.288;2023-06-10T08:40:24;94682.09;;;24.84;87.84
13041;BME280;6587;42.728;23.288;2023-06-10T08:43:00;94689.69;;;24.85;85.37
13041;BME280;6587;42.728;23.288;2023-06-10T08:45:30;94685.59;;;24.95;87.13
13041;BME280;6587;42.728;23.288;2023-06-10T08:47:58;94681.91;;;24.72;84.74
13041;BME280;6587;42.728;23.288;2023-06-10T08:50:26;94671.75;;;25.25;82.75
13041;BME280;6587;42.728;23.288;2023-06-10T08:52:57;94678.69;;;24.56;82.02
13041;BME280;6587;42.728;23.288;2023-06-10T08:55:29;94668.22;;;24.86;82.67
13041;BME280;6587;42.728;23.288;2023-06-10T08:57:59;94667.88;;;24.78;80.14
13041;BME280;6587;42.728;23.288;2023-06-10T09:00:26;94670.47;;;24.51;80.94
13041;BME280;6587;42.728;23.288;2023-06-10T09:02:54;94664.47;;;25.32;80.39
13041;BME280;6587;42.728;23.288;2023-06-10T09:05:21;94661.09;;;25.95;82.37
13041;BME280;6587;42.728;23.288;2023-06-10T09:07:48;94654.22;;;26.45;77.35
13041;BME280;6587;42.728;23.288;2023-06-10T09:10:16;94658.22;;;25.61;66.77
13041;BME280;6587;42.728;23.288;2023-06-10T09:12:42;94648.78;;;25.75;67.35
13041;BME280;6587;42.728;23.288;2023-06-10T09:15:11;94642.06;;;25.59;70.05
13041;BME280;6587;42.728;23.288;2023-06-10T09:17:40;94642.50;;;25.91;67.81
13041;BME280;6587;42.728;23.288;2023-06-10T09:20:08;94638.28;;;25.90;68.85
13041;BME280;6587;42.728;23.288;2023-06-10T09:22:34;94641.97;;;26.49;70.31
13041;BME280;6587;42.728;23.288;2023-06-10T09:25:02;94635.28;;;26.94;65.71
13041;BME280;6587;42.728;23.288;2023-06-10T09:27:31;94635.50;;;27.73;64.23
13041;BME280;6587;42.728;23.288;2023-06-10T09:29:58;94630.94;;;28.10;61.14
13041;BME280;6587;42.728;23.288;2023-06-10T09:32:26;94636.81;;;28.12;60.45
13041;BME280;6587;42.728;23.288;2023-06-10T09:34:55;94626.84;;;28.19;59.70
13041;BME280;6587;42.728;23.288;2023-06-10T09:37:22;94625.19;;;28.29;57.80
13041;BME280;6587;42.728;23.288;2023-06-10T09:40:03;94623.44;;;28.29;61.35
13041;BME280;6587;42.728;23.288;2023-06-10T09:42:35;94627.63;;;28.30;56.02
13041;BME280;6587;42.728;23.288;2023-06-10T09:45:02;94613.84;;;28.09;53.46
13041;BME280;6587;42.728;23.288;2023-06-10T09:47:30;94613.47;;;27.11;56.05
13041;BME280;6587;42.728;23.288;2023-06-10T09:49:57;94611.75;;;27.23;59.14
13041;BME280;6587;42.728;23.288;2023-06-10T09:52:24;94605.16;;;28.10;56.88
13041;BME280;6587;42.728;23.288;2023-06-10T09:54:52;94600.63;;;28.57;54.88
13041;BME280;6587;42.728;23.288;2023-06-10T09:57:19;94599.13;;;28.54;50.97
13041;BME280;6587;42.728;23.288;2023-06-10T09:59:46;94593.28;;;28.73;49.85
13041;BME280;6587;42.728;23.288;2023-06-10T10:02:14;94591.31;;;28.22;47.99
13041;BME280;6587;42.728;23.288;2023-06-10T10:04:43;94585.94;;;28.69;51.85
13041;BME280;6587;42.728;23.288;2023-06-10T10:07:11;94567.75;;;29.12;49.81
13041;BME280;6587;42.728;23.288;2023-06-10T10:09:38;94580.59;;;29.65;49.09
13041;BME280;6587;42.728;23.288;2023-06-10T10:12:10;94583.44;;;29.62;48.73
13041;BME280;6587;42.728;23.288;2023-06-10T10:14:38;94586.22;;;29.70;49.58
13041;BME280;6587;42.728;23.288;2023-06-10T10:17:07;94566.88;;;30.15;47.77
13041;BME280;6587;42.728;23.288;2023-06-10T10:19:40;94568.97;;;29.29;48.63
13041;BME280;6587;42.728;23.288;2023-06-10T10:22:18;94576.66;;;29.19;46.32
13041;BME280;6587;42.728;23.288;2023-06-10T10:24:49;94572.50;;;28.75;46.29
13041;BME280;6587;42.728;23.288;2023-06-10T10:27:26;94567.44;;;28.85;46.13
13041;BME280;6587;42.728;23.288;2023-06-10T10:29:54;94566.13;;;29.32;46.82
13041;BME280;6587;42.728;23.288;2023-06-10T10:32:26;94566.31;;;30.11;47.38
13041;BME280;6587;42.728;23.288;2023-06-10T10:35:00;94568.56;;;30.26;45.20
13041;BME280;6587;42.728;23.288;2023-06-10T10:37:33;94565.38;;;29.72;45.10
13041;BME280;6587;42.728;23.288;2023-06-10T10:40:00;94555.00;;;29.62;46.43
13041;BME280;6587;42.728;23.288;2023-06-10T10:42:29;94545.41;;;29.74;46.08
13041;BME280;6587;42.728;23.288;2023-06-10T10:44:56;94563.28;;;30.37;45.33
13041;BME280;6587;42.728;23.288;2023-06-10T10:47:27;94555.66;;;30.55;45.72
13041;BME280;6587;42.728;23.288;2023-06-10T10:49:54;94541.94;;;30.14;45.91
13041;BME280;6587;42.728;23.288;2023-06-10T10:52:24;94547.28;;;29.72;45.99
13041;BME280;6587;42.728;23.288;2023-06-10T10:54:53;94548.63;;;29.66;47.03
13041;BME280;6587;42.728;23.288;2023-06-10T10:57:21;94544.97;;;29.48;45.90
13041;BME280;6587;42.728;23.288;2023-06-10T10:59:54;94552.91;;;29.05;46.30
13041;BME280;6587;42.728;23.288;2023-06-10T11:02:45;94550.16;;;28.64;48.03
13041;BME280;6587;42.728;23.288;2023-06-10T11:05:15;94523.09;;;28.59;48.65
13041;BME280;6587;42.728;23.288;2023-06-10T11:07:52;94535.88;;;29.23;48.72
13041;BME280;6587;42.728;23.288;2023-06-10T11:10:29;94526.63;;;29.51;47.77
13041;BME280;6587;42.728;23.288;2023-06-10T11:12:56;94540.22;;;28.81;49.81
13041;BME280;6587;42.728;23.288;2023-06-10T11:15:25;94533.16;;;29.45;48.74
13041;BME280;6587;42.728;23.288;2023-06-10T11:18:15;94504.13;;;30.42;47.53
13041;BME280;6587;42.728;23.288;2023-06-10T11:20:59;94518.78;;;31.66;45.60
13041;BME280;6587;42.728;23.288;2023-06-10T11:23:39;94513.00;;;32.81;42.87
13041;BME280;6587;42.728;23.288;2023-06-10T11:26:18;94493.81;;;33.00;40.03
13041;BME280;6587;42.728;23.288;2023-06-10T11:29:07;94504.94;;;33.10;39.94
13041;BME280;6587;42.728;23.288;2023-06-10T11:31:45;94505.72;;;33.37;39.45
13041;BME280;6587;42.728;23.288;2023-06-10T11:34:22;94496.47;;;33.60;39.18
13041;BME280;6587;42.728;23.288;2023-06-10T11:36:51;94493.78;;;32.74;39.07
13041;BME280;6587;42.728;23.288;2023-06-10T11:39:19;94492.44;;;32.16;40.92
13041;BME280;6587;42.728;23.288;2023-06-10T11:41:48;94491.25;;;31.55;41.64
13041;BME280;6587;42.728;23.288;2023-06-10T11:44:17;94496.50;;;30.89;42.24
13041;BME280;6587;42.728;23.288;2023-06-10T11:46:44;94497.34;;;30.41;43.26
13041;BME280;6587;42.728;23.288;2023-06-10T11:49:11;94484.50;;;30.20;43.14
13041;BME280;6587;42.728;23.288;2023-06-10T11:51:40;94495.53;;;29.62;41.13
13041;BME280;6587;42.728;23.288;2023-06-10T11:54:14;94497.81;;;30.06;41.46
13041;BME280;6587;42.728;23.288;2023-06-10T11:56:41;94492.09;;;29.92;38.18
13041;BME280;6587;42.728;23.288;2023-06-10T11:59:10;94490.88;;;30.06;38.26
13041;BME280;6587;42.728;23.288;2023-06-10T12:01:38;94489.59;;;29.81;39.19
13041;BME280;6587;42.728;23.288;2023-06-10T12:04:09;94482.31;;;30.15;38.95
13041;BME280;6587;42.728;23.288;2023-06-10T12:06:44;94479.34;;;30.68;36.79
13041;BME280;6587;42.728;23.288;2023-06-10T12:09:19;94494.44;;;30.73;38.43
13041;BME280;6587;42.728;23.288;2023-06-10T12:11:49;94485.06;;;30.43;41.42
13041;BME280;6587;42.728;23.288;2023-06-10T12:14:50;94492.69;;;30.35;40.78
13041;BME280;6587;42.728;23.288;2023-06-10T12:17:20;94480.69;;;30.73;36.98
13041;BME280;6587;42.728;23.288;2023-06-10T12:19:47;94460.00;;;30.24;39.95
13041;BME280;6587;42.728;23.288;2023-06-10T12:22:14;94459.59;;;30.38;38.79
13041;BME280;6587;42.728;23.288;2023-06-10T12:24:45;94473.75;;;30.34;40.06
13041;BME280;6587;42.728;23.288;2023-06-10T12:27:24;94471.41;;;30.02;41.02
13041;BME280;6587;42.728;23.288;2023-06-10T12:29:55;94479.06;;;30.52;39.56
13041;BME280;6587;42.728;23.288;2023-06-10T12:32:35;94465.03;;;30.55;37.02
13041;BME280;6587;42.728;23.288;2023-06-10T12:35:03;94454.81;;;29.55;38.06
13041;BME280;6587;42.728;23.288;2023-06-10T12:37:30;94461.47;;;30.07;38.54
13041;BME280;6587;42.728;23.288;2023-06-10T12:40:00;94458.97;;;29.77;37.68
13041;BME280;6587;42.728;23.288;2023-06-10T12:42:28;94456.66;;;29.83;38.82
13041;BME280;6587;42.728;23.288;2023-06-10T12:44:57;94453.28;;;29.42;40.56
13041;BME280;6587;42.728;23.288;2023-06-10T12:47:30;94460.25;;;29.51;41.11
13041;BME280;6587;42.728;23.288;2023-06-10T12:49:58;94460.38;;;29.50;38.29
13041;BME280;6587;42.728;23.288;2023-06-10T12:52:25;94469.25;;;29.17;40.43
13041;BME280;6587;42.728;23.288;2023-06-10T12:54:52;94474.75;;;29.02;41.23
13041;BME280;6587;42.728;23.288;2023-06-10T12:57:20;94467.09;;;29.01;40.40
13041;BME280;6587;42.728;23.288;2023-06-10T12:59:47;94473.41;;;28.66;40.05
13041;BME280;6587;42.728;23.288;2023-06-10T13:02:19;94454.38;;;28.14;39.37
13041;BME280;6587;42.728;23.288;2023-06-10T13:04:46;94475.91;;;27.70;39.88